sensor_id;sensor_type;location;lat;lon;timestamp;P1;durP1;ratioP1;P2;durP2;ratioP2
54883;SDS011;40776;52.880;6.016;2022-07-23T00:01:04;8.68;;;4.78;;
54883;SDS011;40776;52.880;6.016;2022-07-23T00:03:31;10.00;;;5.40;;
54883;SDS011;40776;52.880;6.016;2022-07-23T00:05:57;9.07;;;5.35;;
54883;SDS011;40776;52.880;6.016;2022-07-23T00:08:23;10.45;;;5.28;;
54883;SDS011;40776;52.880;6.016;2022-07-23T00:10:49;7.97;;;5.00;;
54883;SDS011;40776;52.880;6.016;2022-07-23T00:13:15;7.97;;;5.03;;
54883;SDS011;40776;52.880;6.016;2022-07-23T00:15:41;8.15;;;5.03;;
54883;SDS011;40776;52.880;6.016;2022-07-23T00:18:07;9.30;;;5.65;;
54883;SDS011;40776;52.880;6.016;2022-07-23T00:20:33;9.05;;;5.47;;
54883;SDS011;40776;52.880;6.016;2022-07-23T00:22:59;8.68;;;5.38;;
54883;SDS011;40776;52.880;6.016;2022-07-23T00:25:26;6.82;;;4.85;;
54883;SDS011;40776;52.880;6.016;2022-07-23T00:27:52;6.68;;;4.50;;
54883;SDS011;40776;52.880;6.016;2022-07-23T00:30:18;11.77;;;5.22;;
54883;SDS011;40776;52.880;6.016;2022-07-23T00:32:48;8.73;;;4.70;;
54883;SDS011;40776;52.880;6.016;2022-07-23T00:35:15;6.43;;;4.57;;
54883;SDS011;40776;52.880;6.016;2022-07-23T00:37:41;7.22;;;4.75;;
54883;SDS011;40776;52.880;6.016;2022-07-23T00:40:08;6.45;;;4.70;;
54883;SDS011;40776;52.880;6.016;2022-07-23T00:42:34;7.65;;;5.18;;
54883;SDS011;40776;52.880;6.016;2022-07-23T00:45:00;6.05;;;4.63;;
54883;SDS011;40776;52.880;6.016;2022-07-23T00:47:26;10.05;;;5.15;;
54883;SDS011;40776;52.880;6.016;2022-07-23T00:49:52;7.93;;;4.70;;
54883;SDS011;40776;52.880;6.016;2022-07-23T00:52:18;7.85;;;5.80;;
54883;SDS011;40776;52.880;6.016;2022-07-23T00:54:44;7.88;;;5.82;;
54883;SDS011;40776;52.880;6.016;2022-07-23T00:57:10;7.28;;;5.63;;
54883;SDS011;40776;52.880;6.016;2022-07-23T00:59:38;7.88;;;5.10;;
54883;SDS011;40776;52.880;6.016;2022-07-23T01:02:04;9.35;;;5.35;;
54883;SDS011;40776;52.880;6.016;2022-07-23T01:04:30;7.82;;;4.68;;
54883;SDS011;40776;52.880;6.016;2022-07-23T01:06:56;9.52;;;5.63;;
54883;SDS011;40776;52.880;6.016;2022-07-23T01:09:22;10.20;;;7.85;;
54883;SDS011;40776;52.880;6.016;2022-07-23T01:11:48;12.05;;;7.82;;
54883;SDS011;40776;52.880;6.016;2022-07-23T01:14:16;17.13;;;9.98;;
54883;SDS011;40776;52.880;6.016;2022-07-23T01:16:43;18.15;;;9.45;;
54883;SDS011;40776;52.880;6.016;2022-07-23T01:19:09;12.48;;;9.23;;
54883;SDS011;40776;52.880;6.016;2022-07-23T01:21:36;13.90;;;8.95;;
54883;SDS011;40776;52.880;6.016;2022-07-23T01:24:03;13.77;;;8.70;;
54883;SDS011;40776;52.880;6.016;2022-07-23T01:26:29;15.50;;;9.27;;
54883;SDS011;40776;52.880;6.016;2022-07-23T01:28:55;13.30;;;9.02;;
54883;SDS011;40776;52.880;6.016;2022-07-23T01:31:21;12.75;;;8.50;;
54883;SDS011;40776;52.880;6.016;2022-07-23T01:33:47;12.80;;;8.25;;
54883;SDS011;40776;52.880;6.016;2022-07-23T01:36:13;14.27;;;8.30;;
54883;SDS011;40776;52.880;6.016;2022-07-23T01:38:39;12.95;;;7.25;;
54883;SDS011;40776;52.880;6.016;2022-07-23T01:41:05;8.25;;;6.53;;
54883;SDS011;40776;52.880;6.016;2022-07-23T01:43:31;9.30;;;7.15;;
54883;SDS011;40776;52.880;6.016;2022-07-23T01:45:58;13.50;;;6.75;;
54883;SDS011;40776;52.880;6.016;2022-07-23T01:48:24;11.50;;;6.70;;
54883;SDS011;40776;52.880;6.016;2022-07-23T01:50:50;8.80;;;6.10;;
54883;SDS011;40776;52.880;6.016;2022-07-23T01:53:16;11.65;;;6.63;;
54883;SDS011;40776;52.880;6.016;2022-07-23T01:55:42;10.18;;;6.13;;
54883;SDS011;40776;52.880;6.016;2022-07-23T01:58:08;7.38;;;5.50;;
54883;SDS011;40776;52.880;6.016;2022-07-23T02:00:34;10.65;;;5.72;;
54883;SDS011;40776;52.880;6.016;2022-07-23T02:03:00;7.47;;;5.03;;
54883;SDS011;40776;52.880;6.016;2022-07-23T02:05:27;8.20;;;5.72;;
54883;SDS011;40776;52.880;6.016;2022-07-23T02:07:57;8.60;;;5.57;;
54883;SDS011;40776;52.880;6.016;2022-07-23T02:10:23;7.68;;;5.45;;
54883;SDS011;40776;52.880;6.016;2022-07-23T02:12:49;7.18;;;5.47;;
54883;SDS011;40776;52.880;6.016;2022-07-23T02:15:15;5.82;;;4.78;;
54883;SDS011;40776;52.880;6.016;2022-07-23T02:17:41;8.52;;;5.72;;
54883;SDS011;40776;52.880;6.016;2022-07-23T02:20:08;8.50;;;5.20;;
54883;SDS011;40776;52.880;6.016;2022-07-23T02:22:34;6.60;;;4.72;;
54883;SDS011;40776;52.880;6.016;2022-07-23T02:25:01;9.85;;;5.57;;
54883;SDS011;40776;52.880;6.016;2022-07-23T02:27:27;7.43;;;5.15;;
54883;SDS011;40776;52.880;6.016;2022-07-23T02:29:53;11.82;;;5.57;;
54883;SDS011;40776;52.880;6.016;2022-07-23T02:32:19;6.00;;;4.57;;
54883;SDS011;40776;52.880;6.016;2022-07-23T02:34:49;6.30;;;4.97;;
54883;SDS011;40776;52.880;6.016;2022-07-23T02:37:15;10.00;;;6.03;;
54883;SDS011;40776;52.880;6.016;2022-07-23T02:39:41;9.40;;;5.65;;
54883;SDS011;40776;52.880;6.016;2022-07-23T02:42:07;9.75;;;5.68;;
54883;SDS011;40776;52.880;6.016;2022-07-23T02:44:33;6.72;;;4.40;;
54883;SDS011;40776;52.880;6.016;2022-07-23T02:46:59;7.28;;;4.97;;
54883;SDS011;40776;52.880;6.016;2022-07-23T02:49:25;6.40;;;4.70;;
54883;SDS011;40776;52.880;6.016;2022-07-23T02:51:51;8.60;;;6.32;;
54883;SDS011;40776;52.880;6.016;2022-07-23T02:54:18;8.02;;;5.57;;
54883;SDS011;40776;52.880;6.016;2022-07-23T02:56:44;10.35;;;6.72;;
54883;SDS011;40776;52.880;6.016;2022-07-23T02:59:10;9.70;;;6.88;;
54883;SDS011;40776;52.880;6.016;2022-07-23T03:01:36;11.60;;;7.70;;
54883;SDS011;40776;52.880;6.016;2022-07-23T03:04:02;13.15;;;9.25;;
54883;SDS011;40776;52.880;6.016;2022-07-23T03:06:28;16.05;;;11.38;;
54883;SDS011;40776;52.880;6.016;2022-07-23T03:08:54;16.80;;;11.23;;
54883;SDS011;40776;52.880;6.016;2022-07-23T03:11:20;17.55;;;12.68;;
54883;SDS011;40776;52.880;6.016;2022-07-23T03:13:46;15.35;;;10.55;;
54883;SDS011;40776;52.880;6.016;2022-07-23T03:16:12;17.27;;;9.98;;
54883;SDS011;40776;52.880;6.016;2022-07-23T03:18:38;11.18;;;7.40;;
54883;SDS011;40776;52.880;6.016;2022-07-23T03:21:04;17.63;;;7.97;;
54883;SDS011;40776;52.880;6.016;2022-07-23T03:23:30;14.38;;;7.10;;
54883;SDS011;40776;52.880;6.016;2022-07-23T03:25:56;11.40;;;6.57;;
54883;SDS011;40776;52.880;6.016;2022-07-23T03:28:22;11.35;;;6.43;;
54883;SDS011;40776;52.880;6.016;2022-07-23T03:30:48;9.75;;;6.30;;
54883;SDS011;40776;52.880;6.016;2022-07-23T03:33:18;11.23;;;7.32;;
54883;SDS011;40776;52.880;6.016;2022-07-23T03:35:44;9.93;;;6.93;;
54883;SDS011;40776;52.880;6.016;2022-07-23T03:38:11;10.57;;;6.00;;
54883;SDS011;40776;52.880;6.016;2022-07-23T03:40:37;8.05;;;5.65;;
54883;SDS011;40776;52.880;6.016;2022-07-23T03:43:03;9.95;;;6.78;;
54883;SDS011;40776;52.880;6.016;2022-07-23T03:45:29;7.35;;;5.60;;
54883;SDS011;40776;52.880;6.016;2022-07-23T03:47:55;7.90;;;5.97;;
54883;SDS011;40776;52.880;6.016;2022-07-23T03:50:21;10.55;;;6.32;;
54883;SDS011;40776;52.880;6.016;2022-07-23T03:52:47;9.95;;;6.03;;
54883;SDS011;40776;52.880;6.016;2022-07-23T03:55:13;12.80;;;5.90;;
54883;SDS011;40776;52.880;6.016;2022-07-23T03:57:39;8.73;;;6.25;;
54883;SDS011;40776;52.880;6.016;2022-07-23T04:00:06;16.48;;;8.60;;
54883;SDS011;40776;52.880;6.016;2022-07-23T04:02:34;10.52;;;6.25;;
54883;SDS011;40776;52.880;6.016;2022-07-23T04:05:00;8.45;;;6.70;;
54883;SDS011;40776;52.880;6.016;2022-07-23T04:07:26;9.88;;;5.93;;
54883;SDS011;40776;52.880;6.016;2022-07-23T04:09:52;8.68;;;6.30;;
54883;SDS011;40776;52.880;6.016;2022-07-23T04:12:18;15.02;;;8.30;;
54883;SDS011;40776;52.880;6.016;2022-07-23T04:14:44;12.88;;;8.52;;
54883;SDS011;40776;52.880;6.016;2022-07-23T04:17:10;15.32;;;9.88;;
54883;SDS011;40776;52.880;6.016;2022-07-23T04:19:36;14.70;;;9.10;;
54883;SDS011;40776;52.880;6.016;2022-07-23T04:22:06;17.00;;;11.40;;
54883;SDS011;40776;52.880;6.016;2022-07-23T04:24:59;20.63;;;13.65;;
54883;SDS011;40776;52.880;6.016;2022-07-23T04:27:26;20.00;;;12.07;;
54883;SDS011;40776;52.880;6.016;2022-07-23T04:29:52;19.90;;;13.90;;
54883;SDS011;40776;52.880;6.016;2022-07-23T04:32:18;18.90;;;12.50;;
54883;SDS011;40776;52.880;6.016;2022-07-23T04:34:44;26.75;;;18.20;;
54883;SDS011;40776;52.880;6.016;2022-07-23T04:37:10;18.73;;;14.63;;
54883;SDS011;40776;52.880;6.016;2022-07-23T04:39:36;30.33;;;22.33;;
54883;SDS011;40776;52.880;6.016;2022-07-23T04:42:02;29.45;;;21.60;;
54883;SDS011;40776;52.880;6.016;2022-07-23T04:44:28;30.13;;;21.27;;
54883;SDS011;40776;52.880;6.016;2022-07-23T04:46:54;30.77;;;20.38;;
54883;SDS011;40776;52.880;6.016;2022-07-23T04:49:20;26.77;;;18.88;;
54883;SDS011;40776;52.880;6.016;2022-07-23T04:51:46;28.95;;;17.83;;
54883;SDS011;40776;52.880;6.016;2022-07-23T04:54:12;26.25;;;16.85;;
54883;SDS011;40776;52.880;6.016;2022-07-23T04:56:38;27.58;;;17.33;;
54883;SDS011;40776;52.880;6.016;2022-07-23T04:59:04;23.35;;;16.73;;
54883;SDS011;40776;52.880;6.016;2022-07-23T05:01:30;20.20;;;15.43;;
54883;SDS011;40776;52.880;6.016;2022-07-23T05:03:56;26.10;;;17.27;;
54883;SDS011;40776;52.880;6.016;2022-07-23T05:06:22;26.23;;;19.02;;
54883;SDS011;40776;52.880;6.016;2022-07-23T05:08:48;29.60;;;21.38;;
54883;SDS011;40776;52.880;6.016;2022-07-23T05:11:14;34.80;;;22.13;;
54883;SDS011;40776;52.880;6.016;2022-07-23T05:13:40;24.60;;;18.30;;
54883;SDS011;40776;52.880;6.016;2022-07-23T05:16:06;23.38;;;16.70;;
54883;SDS011;40776;52.880;6.016;2022-07-23T05:18:32;22.40;;;13.55;;
54883;SDS011;40776;52.880;6.016;2022-07-23T05:20:58;21.83;;;14.45;;
54883;SDS011;40776;52.880;6.016;2022-07-23T05:23:24;23.63;;;16.02;;
54883;SDS011;40776;52.880;6.016;2022-07-23T05:25:50;24.27;;;16.35;;
54883;SDS011;40776;52.880;6.016;2022-07-23T05:28:16;22.30;;;13.25;;
54883;SDS011;40776;52.880;6.016;2022-07-23T05:30:42;19.65;;;13.27;;
54883;SDS011;40776;52.880;6.016;2022-07-23T05:33:08;15.43;;;7.43;;
54883;SDS011;40776;52.880;6.016;2022-07-23T05:35:34;11.40;;;7.45;;
54883;SDS011;40776;52.880;6.016;2022-07-23T05:38:00;9.05;;;5.20;;
54883;SDS011;40776;52.880;6.016;2022-07-23T05:40:26;8.10;;;4.38;;
54883;SDS011;40776;52.880;6.016;2022-07-23T05:42:52;8.68;;;4.43;;
54883;SDS011;40776;52.880;6.016;2022-07-23T05:45:18;6.65;;;3.28;;
54883;SDS011;40776;52.880;6.016;2022-07-23T05:47:46;10.82;;;3.63;;
54883;SDS011;40776;52.880;6.016;2022-07-23T05:50:12;7.05;;;3.78;;
54883;SDS011;40776;52.880;6.016;2022-07-23T05:52:39;6.03;;;4.10;;
54883;SDS011;40776;52.880;6.016;2022-07-23T05:55:06;7.75;;;4.13;;
54883;SDS011;40776;52.880;6.016;2022-07-23T05:57:32;7.65;;;4.13;;
54883;SDS011;40776;52.880;6.016;2022-07-23T05:59:58;4.97;;;3.42;;
54883;SDS011;40776;52.880;6.016;2022-07-23T06:02:23;7.55;;;2.90;;
54883;SDS011;40776;52.880;6.016;2022-07-23T06:04:49;4.50;;;3.22;;
54883;SDS011;40776;52.880;6.016;2022-07-23T06:07:15;8.60;;;3.70;;
54883;SDS011;40776;52.880;6.016;2022-07-23T06:09:41;6.07;;;2.83;;
54883;SDS011;40776;52.880;6.016;2022-07-23T06:12:07;4.70;;;2.78;;
54883;SDS011;40776;52.880;6.016;2022-07-23T06:14:33;4.75;;;2.95;;
54883;SDS011;40776;52.880;6.016;2022-07-23T06:16:59;4.38;;;2.55;;
54883;SDS011;40776;52.880;6.016;2022-07-23T06:19:26;5.60;;;2.53;;
54883;SDS011;40776;52.880;6.016;2022-07-23T06:21:52;4.18;;;2.65;;
54883;SDS011;40776;52.880;6.016;2022-07-23T06:24:18;4.97;;;2.50;;
54883;SDS011;40776;52.880;6.016;2022-07-23T06:26:44;7.72;;;2.55;;
54883;SDS011;40776;52.880;6.016;2022-07-23T06:29:10;4.10;;;2.13;;
54883;SDS011;40776;52.880;6.016;2022-07-23T06:31:36;3.78;;;2.33;;
54883;SDS011;40776;52.880;6.016;2022-07-23T06:34:02;4.20;;;2.40;;
54883;SDS011;40776;52.880;6.016;2022-07-23T06:36:28;6.32;;;2.40;;
54883;SDS011;40776;52.880;6.016;2022-07-23T06:38:54;6.05;;;2.35;;
54883;SDS011;40776;52.880;6.016;2022-07-23T06:41:20;5.10;;;2.20;;
54883;SDS011;40776;52.880;6.016;2022-07-23T06:43:47;5.28;;;2.42;;
54883;SDS011;40776;52.880;6.016;2022-07-23T06:46:13;6.25;;;1.42;;
54883;SDS011;40776;52.880;6.016;2022-07-23T06:48:39;5.13;;;1.20;;
54883;SDS011;40776;52.880;6.016;2022-07-23T06:51:05;4.50;;;1.10;;
54883;SDS011;40776;52.880;6.016;2022-07-23T06:53:31;2.72;;;0.98;;
54883;SDS011;40776;52.880;6.016;2022-07-23T06:55:57;1.55;;;0.88;;
54883;SDS011;40776;52.880;6.016;2022-07-23T06:58:23;2.38;;;0.68;;
54883;SDS011;40776;52.880;6.016;2022-07-23T07:00:49;4.57;;;0.80;;
54883;SDS011;40776;52.880;6.016;2022-07-23T07:03:16;1.70;;;0.70;;
54883;SDS011;40776;52.880;6.016;2022-07-23T07:05:42;1.70;;;0.52;;
54883;SDS011;40776;52.880;6.016;2022-07-23T07:08:08;2.63;;;0.68;;
54883;SDS011;40776;52.880;6.016;2022-07-23T07:10:34;3.38;;;0.73;;
54883;SDS011;40776;52.880;6.016;2022-07-23T07:13:00;2.80;;;0.80;;
54883;SDS011;40776;52.880;6.016;2022-07-23T07:15:26;2.20;;;0.75;;
54883;SDS011;40776;52.880;6.016;2022-07-23T07:17:52;0.75;;;0.50;;
54883;SDS011;40776;52.880;6.016;2022-07-23T07:20:18;2.22;;;0.65;;
54883;SDS011;40776;52.880;6.016;2022-07-23T07:22:44;1.75;;;1.20;;
54883;SDS011;40776;52.880;6.016;2022-07-23T07:25:09;1.80;;;0.60;;
54883;SDS011;40776;52.880;6.016;2022-07-23T07:27:35;2.78;;;0.90;;
54883;SDS011;40776;52.880;6.016;2022-07-23T07:30:02;4.32;;;0.80;;
54883;SDS011;40776;52.880;6.016;2022-07-23T07:32:29;2.20;;;0.70;;
54883;SDS011;40776;52.880;6.016;2022-07-23T07:34:54;2.28;;;0.88;;
54883;SDS011;40776;52.880;6.016;2022-07-23T07:37:20;2.50;;;0.60;;
54883;SDS011;40776;52.880;6.016;2022-07-23T07:39:45;1.77;;;0.70;;
54883;SDS011;40776;52.880;6.016;2022-07-23T07:42:11;1.67;;;0.50;;
54883;SDS011;40776;52.880;6.016;2022-07-23T07:44:37;1.20;;;0.50;;
54883;SDS011;40776;52.880;6.016;2022-07-23T07:47:03;4.57;;;0.68;;
54883;SDS011;40776;52.880;6.016;2022-07-23T07:49:29;1.50;;;0.52;;
54883;SDS011;40776;52.880;6.016;2022-07-23T07:51:54;1.45;;;0.50;;
54883;SDS011;40776;52.880;6.016;2022-07-23T07:54:20;1.52;;;0.50;;
54883;SDS011;40776;52.880;6.016;2022-07-23T07:56:46;1.75;;;0.50;;
54883;SDS011;40776;52.880;6.016;2022-07-23T07:59:12;0.98;;;0.40;;
54883;SDS011;40776;52.880;6.016;2022-07-23T08:01:39;2.33;;;0.50;;
54883;SDS011;40776;52.880;6.016;2022-07-23T08:04:05;2.55;;;0.50;;
54883;SDS011;40776;52.880;6.016;2022-07-23T08:06:31;2.75;;;0.68;;
54883;SDS011;40776;52.880;6.016;2022-07-23T08:08:56;3.03;;;0.63;;
54883;SDS011;40776;52.880;6.016;2022-07-23T08:11:22;2.70;;;0.82;;
54883;SDS011;40776;52.880;6.016;2022-07-23T08:13:48;2.38;;;0.52;;
54883;SDS011;40776;52.880;6.016;2022-07-23T08:16:13;2.05;;;0.57;;
54883;SDS011;40776;52.880;6.016;2022-07-23T08:18:39;2.78;;;0.75;;
54883;SDS011;40776;52.880;6.016;2022-07-23T08:21:05;2.58;;;0.60;;
54883;SDS011;40776;52.880;6.016;2022-07-23T08:23:31;1.23;;;0.47;;
54883;SDS011;40776;52.880;6.016;2022-07-23T08:25:57;1.42;;;0.50;;
54883;SDS011;40776;52.880;6.016;2022-07-23T08:28:24;1.77;;;0.60;;
54883;SDS011;40776;52.880;6.016;2022-07-23T08:30:51;2.72;;;0.60;;
54883;SDS011;40776;52.880;6.016;2022-07-23T08:33:17;2.05;;;0.93;;
54883;SDS011;40776;52.880;6.016;2022-07-23T08:35:46;3.28;;;0.90;;
54883;SDS011;40776;52.880;6.016;2022-07-23T08:38:13;1.60;;;0.40;;
54883;SDS011;40776;52.880;6.016;2022-07-23T08:40:46;1.65;;;0.50;;
54883;SDS011;40776;52.880;6.016;2022-07-23T08:43:14;1.67;;;0.65;;
54883;SDS011;40776;52.880;6.016;2022-07-23T08:45:43;2.70;;;0.80;;
54883;SDS011;40776;52.880;6.016;2022-07-23T08:51:52;1.65;;;0.60;;
54883;SDS011;40776;52.880;6.016;2022-07-23T08:54:19;2.95;;;0.77;;
54883;SDS011;40776;52.880;6.016;2022-07-23T08:56:46;2.10;;;0.90;;
54883;SDS011;40776;52.880;6.016;2022-07-23T08:59:13;1.17;;;0.63;;
54883;SDS011;40776;52.880;6.016;2022-07-23T09:01:39;1.40;;;0.50;;
54883;SDS011;40776;52.880;6.016;2022-07-23T09:04:05;1.92;;;0.80;;
54883;SDS011;40776;52.880;6.016;2022-07-23T09:06:30;0.90;;;0.55;;
54883;SDS011;40776;52.880;6.016;2022-07-23T09:11:45;3.20;;;0.80;;
54883;SDS011;40776;52.880;6.016;2022-07-23T09:14:12;1.10;;;0.57;;
54883;SDS011;40776;52.880;6.016;2022-07-23T09:16:37;1.67;;;0.80;;
54883;SDS011;40776;52.880;6.016;2022-07-23T09:19:04;1.40;;;0.65;;
54883;SDS011;40776;52.880;6.016;2022-07-23T09:21:35;2.15;;;0.73;;
54883;SDS011;40776;52.880;6.016;2022-07-23T09:24:07;1.98;;;0.70;;
54883;SDS011;40776;52.880;6.016;2022-07-23T09:26:35;1.63;;;0.80;;
54883;SDS011;40776;52.880;6.016;2022-07-23T09:29:08;2.92;;;0.80;;
54883;SDS011;40776;52.880;6.016;2022-07-23T09:31:41;3.25;;;1.17;;
54883;SDS011;40776;52.880;6.016;2022-07-23T09:34:16;2.15;;;0.70;;
54883;SDS011;40776;52.880;6.016;2022-07-23T09:36:46;1.50;;;0.80;;
54883;SDS011;40776;52.880;6.016;2022-07-23T09:39:13;2.33;;;0.85;;
54883;SDS011;40776;52.880;6.016;2022-07-23T09:44:13;5.63;;;0.90;;
54883;SDS011;40776;52.880;6.016;2022-07-23T09:46:41;3.00;;;1.00;;
54883;SDS011;40776;52.880;6.016;2022-07-23T09:49:12;2.13;;;1.10;;
54883;SDS011;40776;52.880;6.016;2022-07-23T09:54:23;4.13;;;0.77;;
54883;SDS011;40776;52.880;6.016;2022-07-23T09:56:59;1.75;;;0.85;;
54883;SDS011;40776;52.880;6.016;2022-07-23T09:59:31;2.38;;;0.82;;
54883;SDS011;40776;52.880;6.016;2022-07-23T10:02:00;2.08;;;0.85;;
54883;SDS011;40776;52.880;6.016;2022-07-23T10:04:28;1.90;;;0.80;;
54883;SDS011;40776;52.880;6.016;2022-07-23T10:06:55;2.00;;;0.80;;
54883;SDS011;40776;52.880;6.016;2022-07-23T10:09:24;2.47;;;1.10;;
54883;SDS011;40776;52.880;6.016;2022-07-23T10:11:53;3.58;;;1.23;;
54883;SDS011;40776;52.880;6.016;2022-07-23T10:14:25;1.63;;;1.00;;
54883;SDS011;40776;52.880;6.016;2022-07-23T10:16:52;2.50;;;0.90;;
54883;SDS011;40776;52.880;6.016;2022-07-23T10:19:18;2.25;;;0.75;;
54883;SDS011;40776;52.880;6.016;2022-07-23T10:21:52;3.70;;;1.08;;
54883;SDS011;40776;52.880;6.016;2022-07-23T10:24:36;3.80;;;0.85;;
54883;SDS011;40776;52.880;6.016;2022-07-23T10:32:37;2.15;;;0.90;;
54883;SDS011;40776;52.880;6.016;2022-07-23T10:35:28;3.25;;;0.90;;
54883;SDS011;40776;52.880;6.016;2022-07-23T10:37:56;1.90;;;0.77;;
54883;SDS011;40776;52.880;6.016;2022-07-23T10:40:27;4.95;;;1.00;;
54883;SDS011;40776;52.880;6.016;2022-07-23T10:42:58;1.40;;;0.80;;
54883;SDS011;40776;52.880;6.016;2022-07-23T10:45:33;4.03;;;1.10;;
54883;SDS011;40776;52.880;6.016;2022-07-23T10:48:13;2.33;;;1.13;;
54883;SDS011;40776;52.880;6.016;2022-07-23T10:50:39;2.72;;;1.15;;
54883;SDS011;40776;52.880;6.016;2022-07-23T10:57:59;2.47;;;0.98;;
54883;SDS011;40776;52.880;6.016;2022-07-23T11:00:33;5.80;;;1.10;;
54883;SDS011;40776;52.880;6.016;2022-07-23T11:03:00;3.00;;;1.45;;
54883;SDS011;40776;52.880;6.016;2022-07-23T11:05:42;2.80;;;0.90;;
54883;SDS011;40776;52.880;6.016;2022-07-23T11:08:12;1.60;;;0.80;;
54883;SDS011;40776;52.880;6.016;2022-07-23T11:26:47;2.15;;;0.95;;
54883;SDS011;40776;52.880;6.016;2022-07-23T11:31:52;2.95;;;1.50;;
54883;SDS011;40776;52.880;6.016;2022-07-23T11:34:31;3.47;;;1.00;;
54883;SDS011;40776;52.880;6.016;2022-07-23T11:36:57;1.30;;;0.80;;
54883;SDS011;40776;52.880;6.016;2022-07-23T11:39:25;3.00;;;1.00;;
54883;SDS011;40776;52.880;6.016;2022-07-23T11:41:52;1.92;;;0.90;;
54883;SDS011;40776;52.880;6.016;2022-07-23T11:47:01;4.13;;;1.30;;
54883;SDS011;40776;52.880;6.016;2022-07-23T11:49:28;2.35;;;1.17;;
54883;SDS011;40776;52.880;6.016;2022-07-23T11:52:07;3.10;;;1.27;;
54883;SDS011;40776;52.880;6.016;2022-07-23T11:57:01;3.83;;;0.95;;
54883;SDS011;40776;52.880;6.016;2022-07-23T11:59:28;3.10;;;1.38;;
54883;SDS011;40776;52.880;6.016;2022-07-23T12:02:00;2.17;;;1.20;;
54883;SDS011;40776;52.880;6.016;2022-07-23T12:04:43;2.70;;;1.20;;
54883;SDS011;40776;52.880;6.016;2022-07-23T12:10:43;2.70;;;1.42;;
54883;SDS011;40776;52.880;6.016;2022-07-23T12:15:19;2.80;;;1.67;;
54883;SDS011;40776;52.880;6.016;2022-07-23T12:17:48;5.57;;;1.27;;
54883;SDS011;40776;52.880;6.016;2022-07-23T12:20:22;3.55;;;1.90;;
54883;SDS011;40776;52.880;6.016;2022-07-23T12:22:50;3.67;;;1.45;;
54883;SDS011;40776;52.880;6.016;2022-07-23T12:25:19;2.63;;;1.50;;
54883;SDS011;40776;52.880;6.016;2022-07-23T12:27:58;4.60;;;1.58;;
54883;SDS011;40776;52.880;6.016;2022-07-23T12:30:45;1.83;;;1.20;;
54883;SDS011;40776;52.880;6.016;2022-07-23T12:33:13;2.38;;;1.30;;
54883;SDS011;40776;52.880;6.016;2022-07-23T12:35:46;4.50;;;1.60;;
54883;SDS011;40776;52.880;6.016;2022-07-23T12:38:22;3.85;;;1.40;;
54883;SDS011;40776;52.880;6.016;2022-07-23T12:40:53;2.83;;;1.50;;
54883;SDS011;40776;52.880;6.016;2022-07-23T12:43:32;2.55;;;1.48;;
54883;SDS011;40776;52.880;6.016;2022-07-23T12:51:05;3.60;;;1.65;;
54883;SDS011;40776;52.880;6.016;2022-07-23T12:53:33;2.35;;;1.35;;
54883;SDS011;40776;52.880;6.016;2022-07-23T13:04:04;4.45;;;1.63;;
54883;SDS011;40776;52.880;6.016;2022-07-23T13:06:35;2.17;;;1.25;;
54883;SDS011;40776;52.880;6.016;2022-07-23T13:09:03;3.88;;;1.90;;
54883;SDS011;40776;52.880;6.016;2022-07-23T13:11:30;2.15;;;1.15;;
54883;SDS011;40776;52.880;6.016;2022-07-23T13:13:56;2.00;;;1.30;;
54883;SDS011;40776;52.880;6.016;2022-07-23T13:16:22;4.03;;;1.42;;
54883;SDS011;40776;52.880;6.016;2022-07-23T13:18:48;2.55;;;1.40;;
54883;SDS011;40776;52.880;6.016;2022-07-23T13:21:13;5.10;;;1.63;;
54883;SDS011;40776;52.880;6.016;2022-07-23T13:23:40;2.60;;;1.30;;
54883;SDS011;40776;52.880;6.016;2022-07-23T13:26:07;2.30;;;1.38;;
54883;SDS011;40776;52.880;6.016;2022-07-23T13:28:32;3.75;;;1.80;;
54883;SDS011;40776;52.880;6.016;2022-07-23T13:30:58;4.32;;;1.88;;
54883;SDS011;40776;52.880;6.016;2022-07-23T13:33:24;3.25;;;1.65;;
54883;SDS011;40776;52.880;6.016;2022-07-23T13:35:51;2.63;;;1.50;;
54883;SDS011;40776;52.880;6.016;2022-07-23T13:38:19;2.67;;;1.40;;
54883;SDS011;40776;52.880;6.016;2022-07-23T13:40:46;3.08;;;1.40;;
54883;SDS011;40776;52.880;6.016;2022-07-23T13:43:14;2.92;;;1.20;;
54883;SDS011;40776;52.880;6.016;2022-07-23T13:45:41;2.05;;;1.17;;
54883;SDS011;40776;52.880;6.016;2022-07-23T13:48:11;2.05;;;1.20;;
54883;SDS011;40776;52.880;6.016;2022-07-23T13:50:38;2.08;;;1.10;;
54883;SDS011;40776;52.880;6.016;2022-07-23T13:53:05;3.50;;;1.42;;
54883;SDS011;40776;52.880;6.016;2022-07-23T13:55:33;3.10;;;1.40;;
54883;SDS011;40776;52.880;6.016;2022-07-23T13:57:59;2.47;;;1.40;;
54883;SDS011;40776;52.880;6.016;2022-07-23T14:00:26;2.60;;;1.35;;
54883;SDS011;40776;52.880;6.016;2022-07-23T14:02:53;2.30;;;1.00;;
54883;SDS011;40776;52.880;6.016;2022-07-23T14:05:19;3.13;;;1.30;;
54883;SDS011;40776;52.880;6.016;2022-07-23T14:07:46;3.05;;;1.60;;
54883;SDS011;40776;52.880;6.016;2022-07-23T14:10:14;1.98;;;1.20;;
54883;SDS011;40776;52.880;6.016;2022-07-23T14:12:40;1.92;;;1.30;;
54883;SDS011;40776;52.880;6.016;2022-07-23T14:15:06;2.75;;;1.38;;
54883;SDS011;40776;52.880;6.016;2022-07-23T14:17:33;2.72;;;1.20;;
54883;SDS011;40776;52.880;6.016;2022-07-23T14:19:59;3.47;;;1.30;;
54883;SDS011;40776;52.880;6.016;2022-07-23T14:22:25;2.47;;;1.58;;
54883;SDS011;40776;52.880;6.016;2022-07-23T14:24:52;2.00;;;1.20;;
54883;SDS011;40776;52.880;6.016;2022-07-23T14:27:18;2.90;;;1.23;;
54883;SDS011;40776;52.880;6.016;2022-07-23T14:29:44;2.30;;;1.27;;
54883;SDS011;40776;52.880;6.016;2022-07-23T14:32:09;2.28;;;1.20;;
54883;SDS011;40776;52.880;6.016;2022-07-23T14:34:35;4.65;;;1.38;;
54883;SDS011;40776;52.880;6.016;2022-07-23T14:37:01;2.60;;;1.60;;
54883;SDS011;40776;52.880;6.016;2022-07-23T14:39:27;2.33;;;1.40;;
54883;SDS011;40776;52.880;6.016;2022-07-23T14:41:53;2.70;;;1.23;;
54883;SDS011;40776;52.880;6.016;2022-07-23T14:44:19;2.47;;;1.27;;
54883;SDS011;40776;52.880;6.016;2022-07-23T14:46:45;2.70;;;1.35;;
54883;SDS011;40776;52.880;6.016;2022-07-23T14:49:10;1.95;;;1.30;;
54883;SDS011;40776;52.880;6.016;2022-07-23T14:51:36;2.42;;;1.38;;
54883;SDS011;40776;52.880;6.016;2022-07-23T14:54:02;4.10;;;1.13;;
54883;SDS011;40776;52.880;6.016;2022-07-23T14:56:29;3.83;;;1.08;;
54883;SDS011;40776;52.880;6.016;2022-07-23T14:58:55;2.92;;;1.20;;
54883;SDS011;40776;52.880;6.016;2022-07-23T15:01:21;5.90;;;1.50;;
54883;SDS011;40776;52.880;6.016;2022-07-23T15:03:48;4.22;;;1.75;;
54883;SDS011;40776;52.880;6.016;2022-07-23T15:06:15;3.55;;;1.40;;
54883;SDS011;40776;52.880;6.016;2022-07-23T15:08:41;2.28;;;1.27;;
54883;SDS011;40776;52.880;6.016;2022-07-23T15:11:07;2.80;;;1.23;;
54883;SDS011;40776;52.880;6.016;2022-07-23T15:13:34;7.53;;;1.65;;
54883;SDS011;40776;52.880;6.016;2022-07-23T15:16:00;3.15;;;1.35;;
54883;SDS011;40776;52.880;6.016;2022-07-23T15:18:26;4.18;;;1.33;;
54883;SDS011;40776;52.880;6.016;2022-07-23T15:20:52;3.20;;;1.60;;
54883;SDS011;40776;52.880;6.016;2022-07-23T15:23:17;4.82;;;1.30;;
54883;SDS011;40776;52.880;6.016;2022-07-23T15:25:43;4.65;;;1.25;;
54883;SDS011;40776;52.880;6.016;2022-07-23T15:28:09;3.00;;;1.45;;
54883;SDS011;40776;52.880;6.016;2022-07-23T15:30:35;2.95;;;1.33;;
54883;SDS011;40776;52.880;6.016;2022-07-23T15:33:01;4.85;;;1.30;;
54883;SDS011;40776;52.880;6.016;2022-07-23T15:35:26;5.38;;;1.42;;
54883;SDS011;40776;52.880;6.016;2022-07-23T15:37:52;4.90;;;1.60;;
54883;SDS011;40776;52.880;6.016;2022-07-23T15:40:18;3.58;;;1.50;;
54883;SDS011;40776;52.880;6.016;2022-07-23T15:42:43;4.85;;;2.17;;
54883;SDS011;40776;52.880;6.016;2022-07-23T15:45:09;2.60;;;1.33;;
54883;SDS011;40776;52.880;6.016;2022-07-23T15:47:35;3.55;;;1.20;;